Main page
METAR-TAF:

METAR-TAF

Airports :

Fritzlar, Germany

Fritzlar Air Base

latitude: 51-07N, longitude: 009-17E, elevation: 172 m

Current weather observation

The report was made 51 minutes ago, at 23:20 UTC
Wind 10 kt from the East
Temperature 0°C
Humidity 51%
Pressure 1022 hPa
Visibility 10 km or more
Broken clouds at a height of 4300 ft

METAR: ETHF 222320Z 08010KT 9999 BKN043 M00/M09 Q1022 BLU

Time: 01:11 (00:11 UTC)

Forecast

The report was made 2 hours and 26 minutes ago, at 21:45 UTC
Forecast valid from 22 at 15 UTC to 22 at 24 UTC
Wind 8 kt from the East/Northeast
Visibility: 2220 m
Scattered clouds at a height of 4000 ft

TAF: ETHF 222145Z 2215/2224 06008KT 9999 NSW SCT040 CANCEL 2220

Weather observations and forecasts of more than 4000 airports (METAR and TAF reports).

The available stations are represented by yellow and red dots on the map.

Hover mouse over dot to see the name of the station.

Then click to see weather observations and forecasts.

To change the map : click on the green buttons with a black cross to zoom in, on the green button with a dash to zoom out, or on the green arrows for adjacent maps.


METAR-TAF: